Chicago O'Hare International Airport
KORD : now visible

Aeroporto :











RITROVATECI SU...

 
LOGIN :

Iscrizione | Disclaimer

   EN    FR    IT 

 









Sommario :    VFR   VFR Marginale   IFR   IFR Intensivo   IFR Molto Intensivo
Visibilità : 
Base nubi : 
>= 8 km
>= 3000ft
5 / 8 km
1000 / 3000 ft
1500m / 5 km
500 / 1000 ft
800 / 1500m
200 / 500 ft
< 800m
< 200 ft
Simboli :   Temporali  Nebbia  Neve Forte  Precipitazioni Forti  Vento > 20 kt






- Altitudine del aeroporto : 672 ft
- Codice IATA : ORD


KORD - Chicago O'Hare International

ULTIMO METAR :
  • 171551Z 12015G21KT 10SM FEW018 BKN210 OVC250 M04/M08 A3069 RMK AO2 SLP405 T10391083

METARs OBSOLETI :
  • 171537Z 12014KT 10SM SCT018 OVC210 M04/M08 A3069 RMK AO2 T10391078
  • 171451Z 12004KT 10SM OVC019 M05/M09 A3072 RMK AO2 SLP417 T10501089 55012
  • 171351Z 00000KT 10SM OVC021 M08/M11 A3072 RMK AO2 SLP416 T10781106
  • 171251Z 01003KT 10SM OVC019 M08/M12 A3075 RMK AO2 SLP426 T10831117

TAF KORD
Valido dal 17 a 15 ore il 18 a 18 ore UTC


171454Z 1715/1818 14008KT P6SM BKN018 OVC200
FM171600 13012G17KT P6SM FEW020 OVC080
TEMPO 1722/1723 1 1/2SM -SN BKN025 OVC050
FM172300 13015G23KT 1 1/2SM -SN BR OVC009
TEMPO 1723/1802 1/2SM -SN FG VV007
FM180500 13015G23KT 2SM -SNPL BR OVC009
FM180700 15015G25KT 3SM -FZRAPLSN BR OVC007
FM181000 16015G25KT 3SM -DZRA BR OVC006
FM181300 19015G25KT 3SM -RA BR OVC005
FM181600 25020G30KT P6SM OVC009



MetMap, La meteo Aeronautica in un colpo d'occhio ! - Copyright ORBIFLY Dicembre 2007 - Disclaimer

ORBIFLY MET'MAP TEAM :

Programmazione e sviluppo : Alexandra Zaïnal
Concezione : Baudouin d'Aumeries
Aiuto per la programmazione : Marc-Olivier Méhu
Supporto tecnico e logistico : Manuel Goepfert
Aiuto per la traduzione : Arnaldo La Scala

Contatto : metmap@orbifly.com




FONTI E CREDITI :

   NOAA       Earth
Advisory